createdAt,value
2023-03-22T00:02:43.317Z,787.00
2023-03-22T00:06:43.066Z,785.00
2023-03-22T00:10:42.841Z,782.00
2023-03-22T00:14:42.627Z,784.00
2023-03-22T00:18:42.407Z,785.00
2023-03-22T00:22:42.181Z,781.00
2023-03-22T00:26:41.977Z,782.00
2023-03-22T00:30:41.750Z,784.00
2023-03-22T00:34:41.542Z,782.00
2023-03-22T00:38:43.129Z,775.00
2023-03-22T00:42:41.290Z,769.00
2023-03-22T00:46:41.078Z,769.00
2023-03-22T00:50:41.187Z,771.00
2023-03-22T00:54:40.671Z,769.00
2023-03-22T00:58:40.463Z,768.00
2023-03-22T01:02:40.256Z,762.00
2023-03-22T01:06:40.318Z,761.00
2023-03-22T01:10:40.197Z,763.00
2023-03-22T01:14:39.630Z,763.00
2023-03-22T01:18:39.422Z,764.00
2023-03-22T01:22:39.454Z,763.00
2023-03-22T01:26:39.507Z,763.00
2023-03-22T01:30:39.588Z,763.00
2023-03-22T01:34:39.078Z,767.00
2023-03-22T01:38:38.868Z,761.00
2023-03-22T01:42:38.645Z,760.00
2023-03-22T01:46:38.502Z,757.00
2023-03-22T01:50:38.706Z,763.00
2023-03-22T01:54:37.986Z,760.00
2023-03-22T01:58:37.781Z,755.00
2023-03-22T02:02:37.704Z,756.00
2023-03-22T02:06:37.698Z,756.00
2023-03-22T02:10:38.126Z,757.00
2023-03-22T02:14:37.728Z,754.00
2023-03-22T02:18:37.505Z,745.00
2023-03-22T02:22:37.298Z,738.00
2023-03-22T02:26:37.089Z,734.00
2023-03-22T02:30:37.304Z,735.00
2023-03-22T02:34:36.699Z,739.00
2023-03-22T02:38:36.491Z,743.00
2023-03-22T02:42:36.289Z,749.00
2023-03-22T02:46:36.083Z,746.00
2023-03-22T02:50:35.864Z,741.00
2023-03-22T02:54:35.648Z,741.00
2023-03-22T02:58:35.640Z,738.00
2023-03-22T03:02:35.416Z,741.00
2023-03-22T03:06:35.200Z,739.00
2023-03-22T03:10:35.010Z,743.00
2023-03-22T03:14:34.778Z,739.00
2023-03-22T03:18:34.568Z,742.00
2023-03-22T03:22:34.369Z,740.00
2023-03-22T03:26:34.159Z,736.00
2023-03-22T03:30:33.949Z,734.00
2023-03-22T03:34:33.741Z,733.00
2023-03-22T03:38:33.527Z,732.00
2023-03-22T03:42:33.578Z,732.00
2023-03-22T03:46:33.385Z,731.00
2023-03-22T03:50:33.174Z,725.00
2023-03-22T03:54:32.983Z,722.00
2023-03-22T03:58:32.784Z,723.00
2023-03-22T04:02:32.596Z,723.00
2023-03-22T04:06:32.384Z,726.00
2023-03-22T04:10:32.176Z,725.00
2023-03-22T04:14:32.029Z,722.00
2023-03-22T04:18:31.787Z,725.00
2023-03-22T04:22:31.606Z,722.00
2023-03-22T04:26:31.619Z,727.00
2023-03-22T04:30:31.425Z,717.00
2023-03-22T04:34:31.211Z,710.00
2023-03-22T04:38:31.034Z,716.00
2023-03-22T04:42:30.815Z,716.00
2023-03-22T04:46:30.641Z,720.00
2023-03-22T04:50:30.409Z,718.00
2023-03-22T04:54:30.192Z,717.00
2023-03-22T04:58:29.995Z,722.00
2023-03-22T05:02:29.812Z,718.00
2023-03-22T05:06:29.582Z,717.00
2023-03-22T05:10:29.380Z,710.00
2023-03-22T05:14:29.212Z,706.00
2023-03-22T05:18:28.982Z,707.00
2023-03-22T05:22:28.779Z,709.00
2023-03-22T05:26:28.575Z,707.00
2023-03-22T05:30:28.366Z,704.00
2023-03-22T05:34:28.135Z,706.00
2023-03-22T05:38:28.045Z,710.00
2023-03-22T05:42:27.760Z,713.00
2023-03-22T05:46:27.551Z,708.00
2023-03-22T05:50:27.501Z,708.00
2023-03-22T05:54:27.298Z,707.00
2023-03-22T05:58:27.097Z,707.00
2023-03-22T06:02:26.879Z,704.00
2023-03-22T06:06:26.738Z,713.00
2023-03-22T06:10:26.468Z,713.00
2023-03-22T06:14:26.285Z,767.00
2023-03-22T06:18:26.086Z,822.00
2023-03-22T06:22:25.935Z,821.00
2023-03-22T06:26:25.754Z,925.00
2023-03-22T06:30:25.675Z,973.00
2023-03-22T06:34:25.422Z,1010.00
2023-03-22T06:38:25.224Z,851.00
2023-03-22T06:42:25.046Z,832.00
2023-03-22T06:46:24.819Z,826.00
2023-03-22T06:50:24.641Z,825.00
2023-03-22T06:54:24.668Z,862.00
2023-03-22T06:58:24.643Z,734.00
2023-03-22T07:02:24.627Z,752.00
2023-03-22T07:06:24.691Z,715.00
2023-03-22T07:10:24.756Z,703.00
2023-03-22T07:14:24.781Z,726.00
2023-03-22T08:09:39.814Z,973.00
2023-03-22T08:13:38.972Z,1054.00
2023-03-22T08:17:38.065Z,1024.00
2023-03-22T08:21:37.110Z,1239.00
2023-03-22T08:25:36.135Z,1249.00
2023-03-22T08:29:35.194Z,1162.00
2023-03-22T08:33:34.166Z,1164.00
2023-03-22T08:37:33.334Z,1168.00
2023-03-22T08:41:32.227Z,1153.00
2023-03-22T08:45:31.264Z,1118.00
2023-03-22T08:49:30.329Z,1090.00
2023-03-22T08:53:29.360Z,1079.00
2023-03-22T08:57:28.355Z,1074.00
2023-03-22T09:01:27.618Z,1053.00
2023-03-22T09:05:26.372Z,1043.00
2023-03-22T09:09:27.030Z,1036.00
2023-03-22T09:13:24.394Z,1361.00
2023-03-22T09:17:23.425Z,1605.00
2023-03-22T09:21:22.434Z,1399.00
2023-03-22T09:25:21.448Z,1320.00
2023-03-22T09:29:20.443Z,1239.00
2023-03-22T09:33:19.462Z,1270.00
2023-03-22T09:37:25.535Z,1285.00
2023-03-22T09:41:17.471Z,1280.00
2023-03-22T09:45:16.500Z,1274.00
2023-03-22T09:49:16.051Z,1276.00
2023-03-22T09:53:14.470Z,1266.00
2023-03-22T09:57:13.460Z,1217.00
2023-03-22T10:01:12.569Z,1218.00
2023-03-22T10:05:11.470Z,1220.00
2023-03-22T10:09:10.505Z,1241.00
2023-03-22T10:13:09.494Z,1254.00
2023-03-22T10:17:08.523Z,1243.00
2023-03-22T10:21:07.574Z,1511.00
2023-03-22T10:25:06.597Z,1575.00
2023-03-22T10:29:05.594Z,1517.00
2023-03-22T10:33:04.582Z,1387.00
2023-03-22T10:37:03.571Z,1385.00
2023-03-22T10:41:02.569Z,1272.00
2023-03-22T10:45:01.632Z,1235.00
2023-03-22T10:49:00.765Z,1242.00
2023-03-22T10:52:59.833Z,1256.00
2023-03-22T10:56:58.861Z,1223.00
2023-03-22T11:00:58.059Z,1195.00
2023-03-22T11:04:57.042Z,1178.00
2023-03-22T11:08:56.118Z,1080.00
2023-03-22T11:12:55.587Z,1168.00
2023-03-22T11:16:54.324Z,1170.00
2023-03-22T11:20:53.318Z,1227.00
2023-03-22T11:24:52.377Z,1212.00
2023-03-22T11:28:51.439Z,1180.00
2023-03-22T11:32:50.636Z,1167.00
2023-03-22T11:40:48.714Z,1152.00
2023-03-22T11:44:47.844Z,1162.00
2023-03-22T11:48:47.087Z,1172.00
2023-03-22T11:52:46.038Z,1190.00
2023-03-22T11:56:45.166Z,1195.00
2023-03-22T12:00:44.264Z,1193.00
2023-03-22T12:04:43.433Z,1252.00
2023-03-22T12:08:42.452Z,1190.00
2023-03-22T12:12:41.530Z,1189.00
2023-03-22T12:16:40.618Z,1213.00
2023-03-22T12:20:39.846Z,1213.00
2023-03-22T12:24:38.682Z,1232.00
2023-03-22T12:28:37.690Z,1253.00
2023-03-22T12:32:36.807Z,1299.00
2023-03-22T12:36:35.748Z,1287.00
2023-03-22T12:40:34.786Z,1276.00
2023-03-22T12:44:33.815Z,1274.00
2023-03-22T12:48:32.956Z,1273.00
2023-03-22T12:52:37.714Z,1263.00
2023-03-22T12:56:31.865Z,1255.00
2023-03-22T13:00:29.951Z,1242.00
2023-03-22T13:04:28.888Z,1237.00
2023-03-22T13:08:27.851Z,1237.00
2023-03-22T13:12:26.862Z,1237.00
2023-03-22T13:16:25.844Z,1240.00
2023-03-22T13:20:24.844Z,1230.00
2023-03-22T13:24:23.876Z,1229.00
2023-03-22T13:28:32.805Z,1227.00
2023-03-22T13:32:21.855Z,1220.00
2023-03-22T13:36:20.864Z,1213.00
2023-03-22T13:40:19.859Z,1208.00
2023-03-22T13:44:18.872Z,1206.00
2023-03-22T13:48:18.025Z,1195.00
2023-03-22T13:52:16.884Z,1193.00
2023-03-22T13:56:15.882Z,1189.00
2023-03-22T14:00:15.329Z,1183.00
2023-03-22T14:04:13.907Z,1172.00
2023-03-22T14:08:12.910Z,1174.00
2023-03-22T14:12:11.917Z,1172.00
2023-03-22T14:16:10.974Z,1170.00
2023-03-22T14:20:09.936Z,1162.00
2023-03-22T14:49:09.302Z,1217.00
2023-03-22T14:53:09.244Z,1215.00
2023-03-22T14:57:09.218Z,1200.00
2023-03-22T15:01:09.176Z,1187.00
2023-03-22T15:05:09.169Z,1180.00
2023-03-22T15:09:09.095Z,1176.00
2023-03-22T15:13:09.160Z,1176.00
2023-03-22T15:17:09.346Z,1172.00
2023-03-22T15:21:09.553Z,1173.00
2023-03-22T15:25:09.738Z,1172.00
2023-03-22T15:29:09.937Z,1171.00
2023-03-22T15:33:10.143Z,1167.00
2023-03-22T15:37:10.343Z,1165.00
2023-03-22T15:41:10.549Z,1166.00
2023-03-22T15:45:10.774Z,1161.00
2023-03-22T15:49:10.965Z,1160.00
2023-03-22T15:53:11.197Z,1162.00
2023-03-22T15:57:11.355Z,1154.00
2023-03-22T16:01:11.591Z,1146.00
2023-03-22T16:05:11.788Z,1144.00
2023-03-22T16:09:12.000Z,1146.00
2023-03-22T16:13:12.250Z,1144.00
2023-03-22T16:17:12.394Z,1150.00
2023-03-22T16:21:12.609Z,1157.00
2023-03-22T16:25:12.809Z,1144.00
2023-03-22T16:29:13.035Z,1140.00
2023-03-22T16:33:13.234Z,1139.00
2023-03-22T16:37:13.458Z,1141.00
2023-03-22T16:41:13.394Z,1136.00
2023-03-22T16:45:13.360Z,1130.00
2023-03-22T16:49:13.308Z,1129.00
2023-03-22T16:53:13.279Z,1132.00
2023-03-22T16:57:13.224Z,1124.00
2023-03-22T17:01:13.235Z,1122.00
2023-03-22T17:05:13.161Z,1133.00
2023-03-22T17:09:13.137Z,1127.00
2023-03-22T17:13:13.115Z,1130.00
2023-03-22T17:17:13.064Z,1120.00
2023-03-22T17:21:13.072Z,1118.00
2023-03-22T17:25:13.269Z,1110.00
2023-03-22T17:29:13.482Z,1111.00
2023-03-22T17:33:14.351Z,1113.00
2023-03-22T17:37:13.893Z,1105.00
2023-03-22T17:41:14.097Z,1104.00
2023-03-22T17:45:14.082Z,1101.00
2023-03-22T17:49:14.052Z,1099.00
2023-03-22T17:53:32.282Z,1097.00
2023-03-22T17:57:52.400Z,1085.00
2023-03-22T18:01:14.999Z,1081.00
2023-03-22T18:05:15.607Z,1083.00
2023-03-22T18:09:13.860Z,1082.00
2023-03-22T18:13:13.852Z,1078.00
2023-03-22T18:17:13.887Z,1069.00
2023-03-22T18:21:13.771Z,1071.00
2023-03-22T18:25:13.758Z,1070.00
2023-03-22T18:29:13.723Z,1060.00
2023-03-22T18:33:13.710Z,1065.00
2023-03-22T18:37:13.776Z,1065.00
2023-03-22T18:45:15.929Z,1061.00
2023-03-22T18:49:13.764Z,1043.00
2023-03-22T18:53:18.678Z,1041.00
2023-03-22T18:57:18.112Z,1037.00
2023-03-22T19:01:14.157Z,1034.00
2023-03-22T19:05:13.923Z,1030.00
2023-03-22T19:09:13.870Z,1026.00
2023-03-22T19:13:13.882Z,1025.00
2023-03-22T19:17:13.848Z,1024.00
2023-03-22T19:21:23.401Z,1015.00
2023-03-22T19:25:15.088Z,1019.00
2023-03-22T19:29:14.051Z,1019.00
2023-03-22T19:33:30.838Z,1018.00
2023-03-22T19:37:15.227Z,1015.00
2023-03-22T19:41:45.115Z,1009.00
2023-03-22T19:45:15.346Z,1007.00
2023-03-22T19:49:15.160Z,1010.00
2023-03-22T19:57:15.675Z,994.00
2023-03-22T20:01:14.655Z,993.00
2023-03-22T20:05:18.053Z,989.00
2023-03-22T20:09:14.805Z,989.00
2023-03-22T20:13:14.776Z,993.00
2023-03-22T20:17:20.856Z,990.00
2023-03-22T20:21:15.697Z,983.00
2023-03-22T20:25:14.665Z,976.00
2023-03-22T20:29:14.829Z,974.00
2023-03-22T20:33:15.024Z,973.00
2023-03-22T20:37:15.242Z,971.00
2023-03-22T20:41:15.443Z,971.00
2023-03-22T20:45:15.622Z,965.00
2023-03-22T20:49:15.808Z,963.00
2023-03-22T20:53:15.984Z,960.00
2023-03-22T20:57:16.141Z,952.00
2023-03-22T21:01:16.309Z,950.00
2023-03-22T21:05:16.519Z,945.00
2023-03-22T21:09:16.653Z,947.00
2023-03-22T21:13:16.846Z,948.00
2023-03-22T21:17:17.010Z,946.00
2023-03-22T21:21:17.239Z,940.00
2023-03-22T21:25:17.467Z,931.00
2023-03-22T21:29:17.675Z,935.00
2023-03-22T21:33:17.856Z,929.00
2023-03-22T21:37:18.029Z,931.00
2023-03-22T21:41:18.247Z,923.00
2023-03-22T21:45:18.408Z,921.00
2023-03-22T21:49:18.562Z,917.00
2023-03-22T21:53:18.743Z,914.00
2023-03-22T21:57:18.936Z,911.00
2023-03-22T22:01:19.968Z,908.00
2023-03-22T22:05:19.107Z,900.00
2023-03-22T22:09:19.066Z,896.00
2023-03-22T22:13:19.025Z,899.00
2023-03-22T22:17:18.972Z,900.00
2023-03-22T22:21:18.910Z,897.00
2023-03-22T22:25:18.878Z,897.00
2023-03-22T22:29:18.836Z,902.00
2023-03-22T22:33:18.833Z,896.00
2023-03-22T22:37:18.796Z,894.00
2023-03-22T22:41:18.752Z,889.00
2023-03-22T22:45:18.708Z,890.00
2023-03-22T22:49:18.642Z,883.00
2023-03-22T22:53:18.673Z,879.00
2023-03-22T22:57:18.811Z,879.00
2023-03-22T23:01:18.936Z,877.00
2023-03-22T23:05:19.130Z,872.00
2023-03-22T23:09:19.283Z,869.00
2023-03-22T23:13:19.429Z,866.00
2023-03-22T23:17:19.583Z,866.00
2023-03-22T23:21:19.695Z,871.00
2023-03-22T23:25:19.767Z,872.00
2023-03-22T23:29:19.882Z,864.00
2023-03-22T23:33:20.026Z,863.00
2023-03-22T23:37:20.218Z,852.00
2023-03-22T23:41:20.407Z,853.00
2023-03-22T23:45:20.549Z,852.00
2023-03-22T23:49:20.749Z,843.00
2023-03-22T23:53:20.795Z,845.00
2023-03-22T23:57:20.841Z,839.00
